sensor_id;sensor_type;location;lat;lon;timestamp;P1;durP1;ratioP1;P2;durP2;ratioP2
53971;SDS011;40530;53.062;6.078;2022-12-18T00:01:32;94.50;;;38.95;;
53971;SDS011;40530;53.062;6.078;2022-12-18T00:03:59;89.68;;;37.22;;
53971;SDS011;40530;53.062;6.078;2022-12-18T00:06:26;88.70;;;37.75;;
53971;SDS011;40530;53.062;6.078;2022-12-18T00:08:54;93.38;;;39.38;;
53971;SDS011;40530;53.062;6.078;2022-12-18T00:11:21;98.90;;;39.25;;
53971;SDS011;40530;53.062;6.078;2022-12-18T00:13:49;91.60;;;38.38;;
53971;SDS011;40530;53.062;6.078;2022-12-18T00:16:16;100.47;;;39.63;;
53971;SDS011;40530;53.062;6.078;2022-12-18T00:18:45;92.60;;;38.20;;
53971;SDS011;40530;53.062;6.078;2022-12-18T00:21:11;90.03;;;35.70;;
53971;SDS011;40530;53.062;6.078;2022-12-18T00:23:38;98.65;;;39.42;;
53971;SDS011;40530;53.062;6.078;2022-12-18T00:26:06;95.03;;;36.97;;
53971;SDS011;40530;53.062;6.078;2022-12-18T00:28:32;104.80;;;39.28;;
53971;SDS011;40530;53.062;6.078;2022-12-18T00:30:59;88.28;;;37.65;;
53971;SDS011;40530;53.062;6.078;2022-12-18T00:33:26;84.88;;;35.50;;
53971;SDS011;40530;53.062;6.078;2022-12-18T00:35:52;91.80;;;37.58;;
53971;SDS011;40530;53.062;6.078;2022-12-18T00:38:18;80.78;;;34.38;;
53971;SDS011;40530;53.062;6.078;2022-12-18T00:40:44;96.35;;;36.95;;
53971;SDS011;40530;53.062;6.078;2022-12-18T00:43:10;92.65;;;37.65;;
53971;SDS011;40530;53.062;6.078;2022-12-18T00:45:36;88.10;;;33.92;;
53971;SDS011;40530;53.062;6.078;2022-12-18T00:48:02;90.80;;;35.17;;
53971;SDS011;40530;53.062;6.078;2022-12-18T00:50:28;80.68;;;35.03;;
53971;SDS011;40530;53.062;6.078;2022-12-18T00:52:54;74.43;;;32.95;;
53971;SDS011;40530;53.062;6.078;2022-12-18T00:55:20;93.72;;;37.20;;
53971;SDS011;40530;53.062;6.078;2022-12-18T00:57:46;83.70;;;34.30;;
53971;SDS011;40530;53.062;6.078;2022-12-18T01:00:13;85.03;;;35.80;;
53971;SDS011;40530;53.062;6.078;2022-12-18T01:02:39;89.07;;;33.25;;
53971;SDS011;40530;53.062;6.078;2022-12-18T01:05:06;85.65;;;34.33;;
53971;SDS011;40530;53.062;6.078;2022-12-18T01:07:32;93.13;;;35.60;;
53971;SDS011;40530;53.062;6.078;2022-12-18T01:09:58;101.30;;;38.03;;
53971;SDS011;40530;53.062;6.078;2022-12-18T01:12:24;83.63;;;33.65;;
53971;SDS011;40530;53.062;6.078;2022-12-18T01:14:50;87.97;;;35.08;;
53971;SDS011;40530;53.062;6.078;2022-12-18T01:17:16;84.82;;;34.63;;
53971;SDS011;40530;53.062;6.078;2022-12-18T01:19:42;98.65;;;35.05;;
53971;SDS011;40530;53.062;6.078;2022-12-18T01:22:09;84.35;;;32.70;;
53971;SDS011;40530;53.062;6.078;2022-12-18T01:24:35;91.57;;;34.15;;
53971;SDS011;40530;53.062;6.078;2022-12-18T01:27:01;86.80;;;33.85;;
53971;SDS011;40530;53.062;6.078;2022-12-18T01:29:27;89.60;;;35.75;;
53971;SDS011;40530;53.062;6.078;2022-12-18T01:31:54;83.55;;;33.47;;
53971;SDS011;40530;53.062;6.078;2022-12-18T01:34:21;76.20;;;32.08;;
53971;SDS011;40530;53.062;6.078;2022-12-18T01:36:47;75.28;;;32.47;;
53971;SDS011;40530;53.062;6.078;2022-12-18T01:39:13;79.63;;;33.03;;
53971;SDS011;40530;53.062;6.078;2022-12-18T01:41:40;77.68;;;30.15;;
53971;SDS011;40530;53.062;6.078;2022-12-18T01:47:12;77.68;;;32.63;;
53971;SDS011;40530;53.062;6.078;2022-12-18T01:49:39;79.35;;;31.20;;
53971;SDS011;40530;53.062;6.078;2022-12-18T01:52:06;81.68;;;32.58;;
53971;SDS011;40530;53.062;6.078;2022-12-18T01:54:32;86.38;;;32.85;;
53971;SDS011;40530;53.062;6.078;2022-12-18T01:56:59;77.38;;;33.08;;
53971;SDS011;40530;53.062;6.078;2022-12-18T01:59:25;85.07;;;31.70;;
53971;SDS011;40530;53.062;6.078;2022-12-18T02:01:52;78.68;;;31.65;;
53971;SDS011;40530;53.062;6.078;2022-12-18T02:04:22;82.88;;;33.47;;
53971;SDS011;40530;53.062;6.078;2022-12-18T02:07:00;91.82;;;32.63;;
53971;SDS011;40530;53.062;6.078;2022-12-18T02:09:33;90.10;;;34.33;;
53971;SDS011;40530;53.062;6.078;2022-12-18T02:12:02;78.93;;;32.45;;
53971;SDS011;40530;53.062;6.078;2022-12-18T02:17:07;83.63;;;33.08;;
53971;SDS011;40530;53.062;6.078;2022-12-18T02:19:55;83.68;;;31.33;;
53971;SDS011;40530;53.062;6.078;2022-12-18T02:22:26;82.28;;;31.85;;
53971;SDS011;40530;53.062;6.078;2022-12-18T02:27:21;79.60;;;31.27;;
53971;SDS011;40530;53.062;6.078;2022-12-18T02:29:50;74.18;;;33.28;;
53971;SDS011;40530;53.062;6.078;2022-12-18T02:32:20;82.38;;;33.05;;
53971;SDS011;40530;53.062;6.078;2022-12-18T02:34:47;79.35;;;31.98;;
53971;SDS011;40530;53.062;6.078;2022-12-18T02:37:15;82.97;;;31.75;;
53971;SDS011;40530;53.062;6.078;2022-12-18T02:39:43;84.00;;;32.58;;
53971;SDS011;40530;53.062;6.078;2022-12-18T02:42:10;81.03;;;31.73;;
53971;SDS011;40530;53.062;6.078;2022-12-18T02:44:43;85.28;;;33.95;;
53971;SDS011;40530;53.062;6.078;2022-12-18T02:47:11;85.65;;;33.67;;
53971;SDS011;40530;53.062;6.078;2022-12-18T02:57:43;79.22;;;32.22;;
53971;SDS011;40530;53.062;6.078;2022-12-18T03:00:18;88.20;;;33.30;;
53971;SDS011;40530;53.062;6.078;2022-12-18T03:02:50;84.82;;;33.25;;
53971;SDS011;40530;53.062;6.078;2022-12-18T03:05:20;85.63;;;33.75;;
53971;SDS011;40530;53.062;6.078;2022-12-18T03:08:06;91.30;;;32.45;;
53971;SDS011;40530;53.062;6.078;2022-12-18T03:10:34;93.03;;;34.97;;
53971;SDS011;40530;53.062;6.078;2022-12-18T03:13:10;96.03;;;35.45;;
53971;SDS011;40530;53.062;6.078;2022-12-18T03:15:38;84.10;;;32.47;;
53971;SDS011;40530;53.062;6.078;2022-12-18T03:18:08;91.72;;;36.83;;
53971;SDS011;40530;53.062;6.078;2022-12-18T03:20:36;83.97;;;33.53;;
53971;SDS011;40530;53.062;6.078;2022-12-18T03:23:06;89.38;;;36.00;;
53971;SDS011;40530;53.062;6.078;2022-12-18T03:25:33;89.00;;;34.38;;
53971;SDS011;40530;53.062;6.078;2022-12-18T03:28:00;83.85;;;34.55;;
53971;SDS011;40530;53.062;6.078;2022-12-18T03:30:28;89.18;;;34.25;;
53971;SDS011;40530;53.062;6.078;2022-12-18T03:33:00;89.60;;;36.70;;
53971;SDS011;40530;53.062;6.078;2022-12-18T03:35:29;89.35;;;36.65;;
53971;SDS011;40530;53.062;6.078;2022-12-18T03:37:55;89.38;;;35.10;;
53971;SDS011;40530;53.062;6.078;2022-12-18T03:40:21;87.75;;;35.35;;
53971;SDS011;40530;53.062;6.078;2022-12-18T03:42:49;80.68;;;33.33;;
53971;SDS011;40530;53.062;6.078;2022-12-18T03:45:27;88.85;;;35.80;;
53971;SDS011;40530;53.062;6.078;2022-12-18T03:48:07;85.35;;;35.00;;
53971;SDS011;40530;53.062;6.078;2022-12-18T03:55:37;90.60;;;35.92;;
53971;SDS011;40530;53.062;6.078;2022-12-18T03:58:04;85.13;;;34.63;;
53971;SDS011;40530;53.062;6.078;2022-12-18T04:00:31;92.18;;;35.72;;
53971;SDS011;40530;53.062;6.078;2022-12-18T04:02:59;94.20;;;36.30;;
53971;SDS011;40530;53.062;6.078;2022-12-18T04:05:26;87.00;;;35.65;;
53971;SDS011;40530;53.062;6.078;2022-12-18T04:07:52;86.53;;;33.17;;
53971;SDS011;40530;53.062;6.078;2022-12-18T04:10:19;85.82;;;33.30;;
53971;SDS011;40530;53.062;6.078;2022-12-18T04:12:45;81.07;;;32.30;;
53971;SDS011;40530;53.062;6.078;2022-12-18T04:15:11;79.85;;;29.63;;
53971;SDS011;40530;53.062;6.078;2022-12-18T04:17:38;72.78;;;30.83;;
53971;SDS011;40530;53.062;6.078;2022-12-18T04:20:04;75.05;;;30.20;;
53971;SDS011;40530;53.062;6.078;2022-12-18T04:22:30;76.50;;;29.90;;
53971;SDS011;40530;53.062;6.078;2022-12-18T04:24:56;77.85;;;31.77;;
53971;SDS011;40530;53.062;6.078;2022-12-18T04:27:22;72.80;;;32.03;;
53971;SDS011;40530;53.062;6.078;2022-12-18T04:29:49;72.32;;;29.52;;
53971;SDS011;40530;53.062;6.078;2022-12-18T04:32:15;76.70;;;30.27;;
53971;SDS011;40530;53.062;6.078;2022-12-18T04:34:41;65.07;;;28.27;;
53971;SDS011;40530;53.062;6.078;2022-12-18T04:37:07;70.85;;;30.10;;
53971;SDS011;40530;53.062;6.078;2022-12-18T04:39:33;68.53;;;29.25;;
53971;SDS011;40530;53.062;6.078;2022-12-18T04:42:00;69.30;;;29.02;;
53971;SDS011;40530;53.062;6.078;2022-12-18T04:44:26;70.60;;;28.95;;
53971;SDS011;40530;53.062;6.078;2022-12-18T04:46:52;79.88;;;30.38;;
53971;SDS011;40530;53.062;6.078;2022-12-18T04:49:18;76.00;;;30.02;;
53971;SDS011;40530;53.062;6.078;2022-12-18T04:51:44;78.55;;;31.10;;
53971;SDS011;40530;53.062;6.078;2022-12-18T04:54:10;70.05;;;29.33;;
53971;SDS011;40530;53.062;6.078;2022-12-18T04:56:36;72.18;;;30.35;;
53971;SDS011;40530;53.062;6.078;2022-12-18T04:59:02;72.93;;;26.73;;
53971;SDS011;40530;53.062;6.078;2022-12-18T05:01:29;74.30;;;28.70;;
53971;SDS011;40530;53.062;6.078;2022-12-18T05:03:55;61.50;;;26.13;;
53971;SDS011;40530;53.062;6.078;2022-12-18T05:06:21;65.07;;;26.30;;
53971;SDS011;40530;53.062;6.078;2022-12-18T05:08:47;72.63;;;28.63;;
53971;SDS011;40530;53.062;6.078;2022-12-18T05:11:14;65.22;;;27.05;;
53971;SDS011;40530;53.062;6.078;2022-12-18T05:13:44;74.47;;;26.90;;
53971;SDS011;40530;53.062;6.078;2022-12-18T05:16:10;60.33;;;25.20;;
53971;SDS011;40530;53.062;6.078;2022-12-18T05:18:37;60.45;;;24.67;;
53971;SDS011;40530;53.062;6.078;2022-12-18T05:21:03;66.57;;;26.58;;
53971;SDS011;40530;53.062;6.078;2022-12-18T05:23:29;60.20;;;24.90;;
53971;SDS011;40530;53.062;6.078;2022-12-18T05:25:57;58.85;;;25.33;;
53971;SDS011;40530;53.062;6.078;2022-12-18T05:28:24;63.47;;;27.20;;
53971;SDS011;40530;53.062;6.078;2022-12-18T05:30:51;62.00;;;25.38;;
53971;SDS011;40530;53.062;6.078;2022-12-18T05:33:17;60.58;;;24.55;;
53971;SDS011;40530;53.062;6.078;2022-12-18T05:35:43;64.00;;;24.30;;
53971;SDS011;40530;53.062;6.078;2022-12-18T05:38:10;53.63;;;24.15;;
53971;SDS011;40530;53.062;6.078;2022-12-18T05:40:36;59.90;;;24.83;;
53971;SDS011;40530;53.062;6.078;2022-12-18T05:43:05;60.53;;;25.88;;
53971;SDS011;40530;53.062;6.078;2022-12-18T05:45:31;57.08;;;24.13;;
53971;SDS011;40530;53.062;6.078;2022-12-18T05:47:57;54.10;;;21.63;;
53971;SDS011;40530;53.062;6.078;2022-12-18T05:50:23;60.17;;;21.75;;
53971;SDS011;40530;53.062;6.078;2022-12-18T05:52:49;52.80;;;22.48;;
53971;SDS011;40530;53.062;6.078;2022-12-18T05:55:15;56.42;;;23.92;;
53971;SDS011;40530;53.062;6.078;2022-12-18T05:57:41;58.72;;;22.73;;
53971;SDS011;40530;53.062;6.078;2022-12-18T06:00:07;50.90;;;20.55;;
53971;SDS011;40530;53.062;6.078;2022-12-18T06:02:34;56.55;;;22.00;;
53971;SDS011;40530;53.062;6.078;2022-12-18T06:05:00;59.33;;;24.48;;
53971;SDS011;40530;53.062;6.078;2022-12-18T06:07:26;56.35;;;22.50;;
53971;SDS011;40530;53.062;6.078;2022-12-18T06:09:52;55.92;;;23.00;;
53971;SDS011;40530;53.062;6.078;2022-12-18T06:12:18;62.78;;;23.70;;
53971;SDS011;40530;53.062;6.078;2022-12-18T06:14:44;56.10;;;22.23;;
53971;SDS011;40530;53.062;6.078;2022-12-18T06:17:10;54.83;;;21.00;;
53971;SDS011;40530;53.062;6.078;2022-12-18T06:19:36;51.70;;;21.67;;
53971;SDS011;40530;53.062;6.078;2022-12-18T06:22:02;53.25;;;21.88;;
53971;SDS011;40530;53.062;6.078;2022-12-18T06:24:28;49.63;;;20.27;;
53971;SDS011;40530;53.062;6.078;2022-12-18T06:26:55;54.25;;;20.67;;
53971;SDS011;40530;53.062;6.078;2022-12-18T06:29:21;50.30;;;21.60;;
53971;SDS011;40530;53.062;6.078;2022-12-18T06:31:47;48.40;;;19.70;;
53971;SDS011;40530;53.062;6.078;2022-12-18T06:34:13;78.35;;;29.52;;
53971;SDS011;40530;53.062;6.078;2022-12-18T06:36:39;46.97;;;20.10;;
53971;SDS011;40530;53.062;6.078;2022-12-18T06:39:05;43.00;;;19.83;;
53971;SDS011;40530;53.062;6.078;2022-12-18T06:41:31;55.60;;;21.42;;
53971;SDS011;40530;53.062;6.078;2022-12-18T06:43:57;41.20;;;19.85;;
53971;SDS011;40530;53.062;6.078;2022-12-18T06:46:23;47.10;;;20.10;;
53971;SDS011;40530;53.062;6.078;2022-12-18T06:48:50;43.58;;;19.73;;
53971;SDS011;40530;53.062;6.078;2022-12-18T06:51:17;46.00;;;19.17;;
53971;SDS011;40530;53.062;6.078;2022-12-18T06:53:43;43.83;;;18.25;;
53971;SDS011;40530;53.062;6.078;2022-12-18T06:56:09;51.00;;;19.52;;
53971;SDS011;40530;53.062;6.078;2022-12-18T06:58:35;48.15;;;19.33;;
53971;SDS011;40530;53.062;6.078;2022-12-18T07:01:02;44.38;;;19.33;;
53971;SDS011;40530;53.062;6.078;2022-12-18T07:03:29;60.20;;;26.88;;
53971;SDS011;40530;53.062;6.078;2022-12-18T07:05:55;52.80;;;21.77;;
53971;SDS011;40530;53.062;6.078;2022-12-18T07:08:21;48.20;;;21.42;;
53971;SDS011;40530;53.062;6.078;2022-12-18T07:10:47;39.15;;;17.92;;
53971;SDS011;40530;53.062;6.078;2022-12-18T07:13:16;49.28;;;20.05;;
53971;SDS011;40530;53.062;6.078;2022-12-18T07:15:43;37.70;;;17.52;;
53971;SDS011;40530;53.062;6.078;2022-12-18T07:18:09;43.65;;;18.33;;
53971;SDS011;40530;53.062;6.078;2022-12-18T07:20:35;44.17;;;18.80;;
53971;SDS011;40530;53.062;6.078;2022-12-18T07:23:05;43.60;;;19.17;;
53971;SDS011;40530;53.062;6.078;2022-12-18T07:25:34;48.92;;;19.33;;
53971;SDS011;40530;53.062;6.078;2022-12-18T07:28:00;43.05;;;18.60;;
53971;SDS011;40530;53.062;6.078;2022-12-18T07:30:26;41.42;;;17.77;;
53971;SDS011;40530;53.062;6.078;2022-12-18T07:32:52;47.38;;;17.85;;
53971;SDS011;40530;53.062;6.078;2022-12-18T07:35:18;43.28;;;18.05;;
53971;SDS011;40530;53.062;6.078;2022-12-18T07:37:44;45.03;;;18.80;;
53971;SDS011;40530;53.062;6.078;2022-12-18T07:40:11;43.42;;;17.58;;
53971;SDS011;40530;53.062;6.078;2022-12-18T07:42:37;188.15;;;77.78;;
53971;SDS011;40530;53.062;6.078;2022-12-18T07:45:03;70.07;;;31.38;;
53971;SDS011;40530;53.062;6.078;2022-12-18T07:47:29;50.70;;;17.83;;
53971;SDS011;40530;53.062;6.078;2022-12-18T07:49:55;43.42;;;16.52;;
53971;SDS011;40530;53.062;6.078;2022-12-18T07:52:21;41.25;;;17.80;;
53971;SDS011;40530;53.062;6.078;2022-12-18T07:54:47;38.55;;;16.92;;
53971;SDS011;40530;53.062;6.078;2022-12-18T07:57:15;50.03;;;17.15;;
53971;SDS011;40530;53.062;6.078;2022-12-18T07:59:41;43.38;;;14.80;;
53971;SDS011;40530;53.062;6.078;2022-12-18T08:02:07;39.15;;;15.75;;
53971;SDS011;40530;53.062;6.078;2022-12-18T08:04:34;35.20;;;16.48;;
53971;SDS011;40530;53.062;6.078;2022-12-18T08:07:01;35.83;;;16.67;;
53971;SDS011;40530;53.062;6.078;2022-12-18T08:09:27;38.58;;;15.93;;
53971;SDS011;40530;53.062;6.078;2022-12-18T08:11:53;44.67;;;18.38;;
53971;SDS011;40530;53.062;6.078;2022-12-18T08:14:19;41.35;;;16.15;;
53971;SDS011;40530;53.062;6.078;2022-12-18T08:16:45;51.75;;;17.45;;
53971;SDS011;40530;53.062;6.078;2022-12-18T08:19:11;39.67;;;17.70;;
53971;SDS011;40530;53.062;6.078;2022-12-18T08:21:37;35.78;;;15.57;;
53971;SDS011;40530;53.062;6.078;2022-12-18T08:24:03;34.75;;;16.15;;
53971;SDS011;40530;53.062;6.078;2022-12-18T08:26:30;40.25;;;17.45;;
53971;SDS011;40530;53.062;6.078;2022-12-18T08:28:57;34.17;;;16.15;;
53971;SDS011;40530;53.062;6.078;2022-12-18T08:31:24;49.03;;;18.02;;
53971;SDS011;40530;53.062;6.078;2022-12-18T08:33:51;34.33;;;16.58;;
53971;SDS011;40530;53.062;6.078;2022-12-18T08:36:17;41.78;;;17.17;;
53971;SDS011;40530;53.062;6.078;2022-12-18T08:38:44;32.70;;;16.17;;
53971;SDS011;40530;53.062;6.078;2022-12-18T08:41:11;39.35;;;16.35;;
53971;SDS011;40530;53.062;6.078;2022-12-18T08:43:37;30.77;;;16.00;;
53971;SDS011;40530;53.062;6.078;2022-12-18T08:46:23;34.33;;;16.48;;
53971;SDS011;40530;53.062;6.078;2022-12-18T08:48:50;34.83;;;15.70;;
53971;SDS011;40530;53.062;6.078;2022-12-18T08:51:17;33.38;;;16.15;;
53971;SDS011;40530;53.062;6.078;2022-12-18T08:53:43;31.83;;;14.63;;
53971;SDS011;40530;53.062;6.078;2022-12-18T08:56:10;31.42;;;14.68;;
53971;SDS011;40530;53.062;6.078;2022-12-18T08:58:36;32.72;;;16.00;;
53971;SDS011;40530;53.062;6.078;2022-12-18T09:01:02;33.50;;;15.25;;
53971;SDS011;40530;53.062;6.078;2022-12-18T09:03:29;28.23;;;14.48;;
53971;SDS011;40530;53.062;6.078;2022-12-18T09:05:55;27.70;;;15.27;;
53971;SDS011;40530;53.062;6.078;2022-12-18T09:08:21;65.35;;;27.05;;
53971;SDS011;40530;53.062;6.078;2022-12-18T09:10:48;38.10;;;16.80;;
53971;SDS011;40530;53.062;6.078;2022-12-18T09:13:14;36.13;;;16.63;;
53971;SDS011;40530;53.062;6.078;2022-12-18T09:15:41;30.95;;;15.25;;
53971;SDS011;40530;53.062;6.078;2022-12-18T09:18:08;25.52;;;13.82;;
53971;SDS011;40530;53.062;6.078;2022-12-18T09:20:35;28.55;;;14.10;;
53971;SDS011;40530;53.062;6.078;2022-12-18T09:23:02;30.05;;;15.82;;
53971;SDS011;40530;53.062;6.078;2022-12-18T09:25:31;29.98;;;15.05;;
53971;SDS011;40530;53.062;6.078;2022-12-18T09:28:05;29.10;;;14.10;;
53971;SDS011;40530;53.062;6.078;2022-12-18T09:30:32;28.25;;;14.55;;
53971;SDS011;40530;53.062;6.078;2022-12-18T09:33:00;26.17;;;13.30;;
53971;SDS011;40530;53.062;6.078;2022-12-18T09:35:27;28.75;;;14.02;;
53971;SDS011;40530;53.062;6.078;2022-12-18T09:37:53;24.70;;;13.30;;
53971;SDS011;40530;53.062;6.078;2022-12-18T09:40:20;23.80;;;13.27;;
53971;SDS011;40530;53.062;6.078;2022-12-18T09:42:59;34.92;;;17.88;;
53971;SDS011;40530;53.062;6.078;2022-12-18T09:45:26;23.08;;;12.52;;
53971;SDS011;40530;53.062;6.078;2022-12-18T09:47:53;26.27;;;13.52;;
53971;SDS011;40530;53.062;6.078;2022-12-18T09:50:27;19.48;;;11.30;;
53971;SDS011;40530;53.062;6.078;2022-12-18T09:52:54;23.10;;;11.95;;
53971;SDS011;40530;53.062;6.078;2022-12-18T09:57:49;22.75;;;11.55;;
53971;SDS011;40530;53.062;6.078;2022-12-18T10:00:21;21.75;;;12.80;;
53971;SDS011;40530;53.062;6.078;2022-12-18T10:02:47;22.33;;;11.68;;
53971;SDS011;40530;53.062;6.078;2022-12-18T10:05:16;23.42;;;12.40;;
53971;SDS011;40530;53.062;6.078;2022-12-18T10:10:21;15.93;;;9.57;;
53971;SDS011;40530;53.062;6.078;2022-12-18T10:12:52;19.00;;;9.65;;
53971;SDS011;40530;53.062;6.078;2022-12-18T10:15:33;19.48;;;11.00;;
53971;SDS011;40530;53.062;6.078;2022-12-18T10:26:27;20.02;;;10.48;;
53971;SDS011;40530;53.062;6.078;2022-12-18T10:28:53;19.20;;;10.48;;
53971;SDS011;40530;53.062;6.078;2022-12-18T10:31:22;67.97;;;29.40;;
53971;SDS011;40530;53.062;6.078;2022-12-18T10:33:48;16.73;;;9.60;;
53971;SDS011;40530;53.062;6.078;2022-12-18T10:36:14;23.02;;;10.77;;
53971;SDS011;40530;53.062;6.078;2022-12-18T10:38:41;21.45;;;10.07;;
53971;SDS011;40530;53.062;6.078;2022-12-18T10:43:47;15.57;;;8.82;;
53971;SDS011;40530;53.062;6.078;2022-12-18T10:46:19;21.77;;;9.77;;
53971;SDS011;40530;53.062;6.078;2022-12-18T10:51:19;15.68;;;9.02;;
53971;SDS011;40530;53.062;6.078;2022-12-18T10:53:47;19.13;;;10.57;;
53971;SDS011;40530;53.062;6.078;2022-12-18T10:56:18;23.60;;;9.90;;
53971;SDS011;40530;53.062;6.078;2022-12-18T10:58:46;13.82;;;8.27;;
53971;SDS011;40530;53.062;6.078;2022-12-18T11:01:20;16.77;;;8.65;;
53971;SDS011;40530;53.062;6.078;2022-12-18T11:06:16;21.60;;;9.85;;
53971;SDS011;40530;53.062;6.078;2022-12-18T11:08:43;18.85;;;8.93;;
53971;SDS011;40530;53.062;6.078;2022-12-18T11:11:20;18.55;;;8.45;;
53971;SDS011;40530;53.062;6.078;2022-12-18T11:13:58;17.58;;;10.13;;
53971;SDS011;40530;53.062;6.078;2022-12-18T11:16:25;16.05;;;9.30;;
53971;SDS011;40530;53.062;6.078;2022-12-18T11:18:51;17.70;;;10.30;;
53971;SDS011;40530;53.062;6.078;2022-12-18T11:21:18;18.02;;;9.35;;
53971;SDS011;40530;53.062;6.078;2022-12-18T11:23:50;18.42;;;8.82;;
53971;SDS011;40530;53.062;6.078;2022-12-18T11:26:17;13.57;;;8.32;;
53971;SDS011;40530;53.062;6.078;2022-12-18T11:33:44;20.50;;;8.63;;
53971;SDS011;40530;53.062;6.078;2022-12-18T11:36:11;13.55;;;8.77;;
53971;SDS011;40530;53.062;6.078;2022-12-18T11:38:41;17.27;;;8.70;;
53971;SDS011;40530;53.062;6.078;2022-12-18T11:46:10;17.60;;;8.88;;
53971;SDS011;40530;53.062;6.078;2022-12-18T11:51:11;14.50;;;8.60;;
53971;SDS011;40530;53.062;6.078;2022-12-18T11:53:38;15.50;;;8.60;;
53971;SDS011;40530;53.062;6.078;2022-12-18T11:58:47;14.43;;;7.80;;
53971;SDS011;40530;53.062;6.078;2022-12-18T12:17:10;14.70;;;7.45;;
53971;SDS011;40530;53.062;6.078;2022-12-18T12:19:46;13.93;;;7.68;;
53971;SDS011;40530;53.062;6.078;2022-12-18T12:24:53;12.38;;;7.60;;
53971;SDS011;40530;53.062;6.078;2022-12-18T12:27:23;12.45;;;7.53;;
53971;SDS011;40530;53.062;6.078;2022-12-18T12:35:29;16.45;;;7.75;;
53971;SDS011;40530;53.062;6.078;2022-12-18T12:38:00;9.77;;;6.15;;
53971;SDS011;40530;53.062;6.078;2022-12-18T12:40:31;10.30;;;5.30;;
53971;SDS011;40530;53.062;6.078;2022-12-18T12:43:00;13.63;;;6.75;;
53971;SDS011;40530;53.062;6.078;2022-12-18T12:45:44;10.93;;;5.72;;
53971;SDS011;40530;53.062;6.078;2022-12-18T12:50:50;8.77;;;5.57;;
53971;SDS011;40530;53.062;6.078;2022-12-18T12:53:21;8.27;;;5.15;;
53971;SDS011;40530;53.062;6.078;2022-12-18T12:55:47;9.32;;;5.15;;
53971;SDS011;40530;53.062;6.078;2022-12-18T13:00:43;10.85;;;5.55;;
53971;SDS011;40530;53.062;6.078;2022-12-18T13:05:54;14.52;;;5.47;;
53971;SDS011;40530;53.062;6.078;2022-12-18T13:08:28;7.50;;;4.72;;
53971;SDS011;40530;53.062;6.078;2022-12-18T13:10:55;6.50;;;4.95;;
53971;SDS011;40530;53.062;6.078;2022-12-18T13:13:53;9.05;;;5.05;;
53971;SDS011;40530;53.062;6.078;2022-12-18T13:16:20;10.38;;;5.13;;
53971;SDS011;40530;53.062;6.078;2022-12-18T13:18:54;6.68;;;4.53;;
53971;SDS011;40530;53.062;6.078;2022-12-18T13:21:27;9.32;;;4.90;;
53971;SDS011;40530;53.062;6.078;2022-12-18T13:23:54;6.20;;;4.47;;
53971;SDS011;40530;53.062;6.078;2022-12-18T13:28:53;13.20;;;4.75;;
53971;SDS011;40530;53.062;6.078;2022-12-18T13:36:39;9.00;;;4.40;;
53971;SDS011;40530;53.062;6.078;2022-12-18T13:39:09;6.32;;;3.88;;
53971;SDS011;40530;53.062;6.078;2022-12-18T13:41:36;9.27;;;4.50;;
53971;SDS011;40530;53.062;6.078;2022-12-18T13:46:44;8.45;;;4.43;;
53971;SDS011;40530;53.062;6.078;2022-12-18T13:51:43;8.10;;;4.57;;
53971;SDS011;40530;53.062;6.078;2022-12-18T13:54:25;6.90;;;4.00;;
53971;SDS011;40530;53.062;6.078;2022-12-18T13:56:54;9.43;;;4.00;;
53971;SDS011;40530;53.062;6.078;2022-12-18T13:59:26;6.40;;;3.80;;
53971;SDS011;40530;53.062;6.078;2022-12-18T14:04:24;8.10;;;4.30;;
53971;SDS011;40530;53.062;6.078;2022-12-18T14:06:55;9.40;;;4.07;;
53971;SDS011;40530;53.062;6.078;2022-12-18T14:09:26;7.00;;;4.28;;
53971;SDS011;40530;53.062;6.078;2022-12-18T14:11:52;6.00;;;4.40;;
53971;SDS011;40530;53.062;6.078;2022-12-18T14:14:40;7.63;;;4.53;;
53971;SDS011;40530;53.062;6.078;2022-12-18T14:17:08;10.63;;;4.75;;
53971;SDS011;40530;53.062;6.078;2022-12-18T14:19:35;6.25;;;4.07;;
53971;SDS011;40530;53.062;6.078;2022-12-18T14:22:01;7.75;;;4.50;;
53971;SDS011;40530;53.062;6.078;2022-12-18T14:24:27;8.73;;;4.80;;
53971;SDS011;40530;53.062;6.078;2022-12-18T14:26:56;8.70;;;4.28;;
53971;SDS011;40530;53.062;6.078;2022-12-18T14:29:37;8.07;;;4.68;;
53971;SDS011;40530;53.062;6.078;2022-12-18T14:32:13;9.80;;;4.47;;
53971;SDS011;40530;53.062;6.078;2022-12-18T14:34:42;7.88;;;4.13;;
53971;SDS011;40530;53.062;6.078;2022-12-18T14:37:12;7.85;;;4.32;;
53971;SDS011;40530;53.062;6.078;2022-12-18T14:39:39;7.68;;;5.15;;
53971;SDS011;40530;53.062;6.078;2022-12-18T14:42:05;7.80;;;4.65;;
53971;SDS011;40530;53.062;6.078;2022-12-18T14:44:31;6.35;;;4.35;;
53971;SDS011;40530;53.062;6.078;2022-12-18T14:46:57;13.80;;;4.88;;
53971;SDS011;40530;53.062;6.078;2022-12-18T14:49:29;7.75;;;4.90;;
53971;SDS011;40530;53.062;6.078;2022-12-18T14:51:59;6.45;;;4.25;;
53971;SDS011;40530;53.062;6.078;2022-12-18T14:54:27;8.07;;;5.03;;
53971;SDS011;40530;53.062;6.078;2022-12-18T14:56:59;7.72;;;4.50;;
53971;SDS011;40530;53.062;6.078;2022-12-18T14:59:26;7.82;;;4.53;;
53971;SDS011;40530;53.062;6.078;2022-12-18T15:04:26;9.32;;;4.90;;
53971;SDS011;40530;53.062;6.078;2022-12-18T15:09:37;9.00;;;5.10;;
53971;SDS011;40530;53.062;6.078;2022-12-18T15:12:03;8.02;;;5.00;;
53971;SDS011;40530;53.062;6.078;2022-12-18T15:14:31;10.77;;;5.13;;
53971;SDS011;40530;53.062;6.078;2022-12-18T15:16:57;8.43;;;5.22;;
53971;SDS011;40530;53.062;6.078;2022-12-18T15:19:34;8.63;;;5.00;;
53971;SDS011;40530;53.062;6.078;2022-12-18T15:22:01;9.23;;;5.20;;
53971;SDS011;40530;53.062;6.078;2022-12-18T15:24:29;8.27;;;5.10;;
53971;SDS011;40530;53.062;6.078;2022-12-18T15:26:56;9.18;;;5.50;;
53971;SDS011;40530;53.062;6.078;2022-12-18T15:29:23;9.52;;;4.93;;
53971;SDS011;40530;53.062;6.078;2022-12-18T15:32:10;8.77;;;5.03;;
53971;SDS011;40530;53.062;6.078;2022-12-18T15:34:43;10.20;;;5.25;;
53971;SDS011;40530;53.062;6.078;2022-12-18T15:37:09;10.57;;;5.85;;
53971;SDS011;40530;53.062;6.078;2022-12-18T15:39:35;10.35;;;5.10;;
53971;SDS011;40530;53.062;6.078;2022-12-18T15:42:01;8.27;;;5.43;;
53971;SDS011;40530;53.062;6.078;2022-12-18T15:44:46;17.10;;;8.45;;
53971;SDS011;40530;53.062;6.078;2022-12-18T15:47:12;11.35;;;6.38;;
53971;SDS011;40530;53.062;6.078;2022-12-18T15:49:39;10.63;;;6.28;;
53971;SDS011;40530;53.062;6.078;2022-12-18T15:52:05;12.05;;;6.75;;
53971;SDS011;40530;53.062;6.078;2022-12-18T15:54:31;13.48;;;9.07;;
53971;SDS011;40530;53.062;6.078;2022-12-18T15:57:16;10.35;;;6.10;;
53971;SDS011;40530;53.062;6.078;2022-12-18T15:59:48;8.77;;;5.55;;
53971;SDS011;40530;53.062;6.078;2022-12-18T16:02:16;11.98;;;6.18;;
53971;SDS011;40530;53.062;6.078;2022-12-18T16:04:42;9.18;;;5.35;;
53971;SDS011;40530;53.062;6.078;2022-12-18T16:07:08;10.77;;;5.35;;
53971;SDS011;40530;53.062;6.078;2022-12-18T16:09:35;10.52;;;5.88;;
53971;SDS011;40530;53.062;6.078;2022-12-18T16:12:01;11.55;;;5.85;;
53971;SDS011;40530;53.062;6.078;2022-12-18T16:14:28;9.32;;;5.57;;
53971;SDS011;40530;53.062;6.078;2022-12-18T16:16:56;11.57;;;5.50;;
53971;SDS011;40530;53.062;6.078;2022-12-18T16:19:22;11.48;;;5.22;;
53971;SDS011;40530;53.062;6.078;2022-12-18T16:21:49;8.10;;;5.43;;
53971;SDS011;40530;53.062;6.078;2022-12-18T16:24:19;7.70;;;5.35;;